Terminal Aerodrome Forecast
Issued by NWS

Home | Current Version | Previous Version | Text Only | Print | Product List | Glossary On
Versions: 1 2 3 4 5 6 7 8 9 10 11 12 13 14 15 16 17 18
560
FTUS46 KMFR 291143
TAFLMT
TAF
KLMT 291143Z 2912/3012 20005KT P6SM BKN035 OVC100
     FM292300 22010KT P6SM -RA SCT020 BKN025 OVC050
     FM300800 27010KT P6SM -SHRA BKN025 OVC050=

USA.gov is the U.S. government's official web portal to all federal, state and local government web resources and services.